Time;durP1;ratioP1;P1;durP2;ratioP2;P2;SDS_P1;SDS_P2;PMS_P1;PMS_P2;Temp;Humidity;BMP_temperature;BMP_pressure;BME280_temperature;BME280_humidity;BME280_pressure;Samples;Min_cycle;Max_cycle;Signal;HPM_P1;HPM_P2
2023/09/16 00:01:21;;;;;;;7.20;5.50;;;;;;;27.17;41.55;101243.52;102816;1295;63900;-83
2023/09/16 00:03:47;;;;;;;7.00;5.40;;;;;;;27.17;41.45;101240.23;102727;1298;61729;-83
2023/09/16 00:06:13;;;;;;;6.90;5.50;;;;;;;27.16;41.56;101240.35;102619;1302;61797;-82
2023/09/16 00:08:42;;;;;;;6.50;5.00;;;;;;;27.17;41.54;101243.70;102775;1297;61500;-82
2023/09/16 00:11:10;;;;;;;6.70;5.60;;;;;;;27.18;41.56;101243.83;102747;1297;63927;-83
2023/09/16 00:13:37;;;;;;;6.60;4.80;;;;;;;27.17;41.37;101244.99;102711;1298;65789;-82
2023/09/16 00:16:04;;;;;;;7.60;5.60;;;;;;;27.17;41.47;101246.41;102712;1297;61878;-83
2023/09/16 00:18:32;;;;;;;6.20;4.70;;;;;;;27.17;41.44;101247.51;102715;1298;61284;-82
2023/09/16 00:20:58;;;;;;;5.50;4.90;;;;;;;27.17;41.33;101246.62;102799;1298;62446;-83
2023/09/16 00:23:24;;;;;;;6.70;5.00;;;;;;;27.17;41.43;101246.20;102508;1297;61421;-82
2023/09/16 00:25:49;;;;;;;5.80;4.80;;;;;;;27.16;41.33;101249.69;102712;1297;62252;-82
2023/09/16 00:28:15;;;;;;;6.30;5.40;;;;;;;27.16;41.55;101252.23;102700;1297;61316;-83
2023/09/16 00:30:45;;;;;;;6.70;4.70;;;;;;;27.17;41.60;101253.67;102933;1297;62074;-83
2023/09/16 00:33:11;;;;;;;7.10;5.40;;;;;;;27.17;41.45;101259.84;102692;1297;63893;-83
2023/09/16 00:35:37;;;;;;;5.70;4.80;;;;;;;27.16;41.56;101257.86;102726;1297;61775;-83
2023/09/16 00:38:03;;;;;;;6.00;4.90;;;;;;;27.16;41.64;101260.58;102723;1296;61438;-83
2023/09/16 00:40:29;;;;;;;5.70;4.90;;;;;;;27.16;41.39;101261.83;102937;1297;61747;-83
2023/09/16 00:42:55;;;;;;;6.10;4.70;;;;;;;27.17;41.43;101264.14;102676;1296;61459;-83
2023/09/16 00:45:20;;;;;;;6.40;4.90;;;;;;;27.16;41.53;101260.41;102749;1298;62548;-83
2023/09/16 00:47:46;;;;;;;5.70;4.90;;;;;;;27.16;41.50;101265.25;102674;1302;61563;-83
2023/09/16 00:50:12;;;;;;;5.90;4.80;;;;;;;27.17;41.44;101262.54;102749;1297;61644;-83
2023/09/16 00:52:47;;;;;;;5.50;4.60;;;;;;;27.16;41.59;101260.02;102675;1299;61296;-83
2023/09/16 00:55:13;;;;;;;7.60;5.20;;;;;;;27.16;41.55;101256.77;102572;1295;63870;-83
2023/09/16 00:57:39;;;;;;;5.60;5.00;;;;;;;27.16;41.51;101258.41;102926;1297;61426;-83
2023/09/16 01:00:07;;;;;;;5.70;4.80;;;;;;;27.16;41.49;101251.36;102749;1297;61307;-83
2023/09/16 01:02:36;;;;;;;6.40;5.10;;;;;;;27.16;41.49;101251.21;102748;1297;61364;-83
2023/09/16 01:05:08;;;;;;;5.80;4.70;;;;;;;27.16;41.58;101251.61;102820;1297;63867;-83
2023/09/16 01:07:34;;;;;;;6.00;4.90;;;;;;;27.15;41.55;101252.16;102799;1298;64831;-83
2023/09/16 01:10:00;;;;;;;6.00;4.90;;;;;;;27.16;41.53;101250.34;102814;1297;62601;-83
2023/09/16 01:12:25;;;;;;;5.50;4.70;;;;;;;27.15;41.49;101251.61;102874;1297;61348;-83
2023/09/16 01:14:51;;;;;;;5.80;4.50;;;;;;;27.16;41.48;101252.13;102986;1301;61365;-83
2023/09/16 01:17:23;;;;;;;5.80;4.50;;;;;;;27.16;41.40;101251.05;102688;1298;62330;-83
2023/09/16 01:19:59;;;;;;;5.90;5.20;;;;;;;27.15;41.54;101249.98;102783;1295;61329;-82
2023/09/16 01:22:25;;;;;;;5.60;4.40;;;;;;;27.15;41.58;101251.81;102747;1300;61454;-82
2023/09/16 01:24:56;;;;;;;6.10;4.50;;;;;;;27.16;41.56;101255.55;102787;1297;61421;-83
2023/09/16 01:27:21;;;;;;;6.20;4.60;;;;;;;27.15;41.59;101254.89;102718;1296;65018;-83
2023/09/16 01:29:48;;;;;;;5.10;4.40;;;;;;;27.16;41.49;101254.67;102759;1297;61407;-82
2023/09/16 01:32:13;;;;;;;5.90;4.70;;;;;;;27.15;41.70;101258.70;102807;1297;61498;-83
2023/09/16 01:34:49;;;;;;;5.30;4.50;;;;;;;27.15;41.66;101258.11;102929;1302;61209;-82
2023/09/16 01:37:18;;;;;;;5.60;4.80;;;;;;;27.15;41.68;101259.05;102681;1300;65867;-82
2023/09/16 01:39:47;;;;;;;5.70;4.40;;;;;;;27.15;41.60;101259.97;102737;1298;61408;-82
2023/09/16 01:42:12;;;;;;;5.50;4.50;;;;;;;27.15;41.47;101260.17;102806;1302;61349;-83
2023/09/16 01:44:38;;;;;;;4.90;4.20;;;;;;;27.15;41.65;101260.16;102652;1296;61474;-83
2023/09/16 01:47:05;;;;;;;5.60;4.40;;;;;;;27.15;41.60;101259.80;102686;1298;61277;-82
2023/09/16 01:49:31;;;;;;;6.40;4.50;;;;;;;27.14;41.66;101257.11;102785;1298;61404;-83
2023/09/16 01:51:57;;;;;;;4.90;4.40;;;;;;;27.15;41.62;101257.06;102692;1297;62480;-82
2023/09/16 01:54:23;;;;;;;6.80;4.40;;;;;;;27.14;41.50;101257.66;102712;1301;61429;-83
2023/09/16 01:56:48;;;;;;;5.50;4.60;;;;;;;27.14;41.62;101257.54;102842;1296;62097;-83
2023/09/16 01:59:14;;;;;;;5.40;4.30;;;;;;;27.14;41.46;101261.71;102679;1297;61409;-83
2023/09/16 02:01:39;;;;;;;5.70;4.30;;;;;;;27.14;41.60;101265.13;102792;1298;61469;-83
2023/09/16 02:04:06;;;;;;;6.10;4.70;;;;;;;27.14;41.52;101267.50;102769;1296;62096;-83
2023/09/16 02:06:32;;;;;;;5.00;4.10;;;;;;;27.14;41.74;101268.94;102709;1297;61389;-83
2023/09/16 02:08:58;;;;;;;6.30;4.60;;;;;;;27.14;41.81;101269.64;102832;1298;62411;-83
2023/09/16 02:11:23;;;;;;;5.60;4.40;;;;;;;27.13;41.63;101268.23;102796;1296;61400;-83
2023/09/16 02:13:49;;;;;;;5.30;4.40;;;;;;;27.14;41.76;101269.45;102775;1297;61429;-83
2023/09/16 02:16:14;;;;;;;4.90;4.10;;;;;;;27.14;41.71;101268.04;102896;1300;61366;-83
2023/09/16 02:18:40;;;;;;;5.40;4.40;;;;;;;27.13;41.55;101267.17;102808;1296;63628;-83
2023/09/16 02:21:07;;;;;;;6.10;4.70;;;;;;;27.13;41.62;101267.17;102768;1303;61404;-83
2023/09/16 02:23:34;;;;;;;6.40;4.20;;;;;;;27.13;41.69;101265.38;102787;1295;61351;-83
2023/09/16 02:26:01;;;;;;;5.20;4.10;;;;;;;27.13;41.69;101266.84;102705;1297;61409;-83
2023/09/16 02:28:27;;;;;;;5.90;4.30;;;;;;;27.13;41.65;101266.11;102669;1300;64812;-83
2023/09/16 02:30:52;;;;;;;4.90;4.20;;;;;;;27.13;41.57;101267.56;102755;1298;61466;-83
2023/09/16 02:33:18;;;;;;;5.80;4.40;;;;;;;27.13;41.65;101271.17;102768;1297;61861;-83
2023/09/16 02:35:43;;;;;;;6.50;4.30;;;;;;;27.12;41.67;101272.66;102663;1297;61432;-83
2023/09/16 02:38:09;;;;;;;4.90;4.10;;;;;;;27.13;41.78;101274.05;102744;1298;61451;-83
2023/09/16 02:40:43;;;;;;;5.20;4.00;;;;;;;27.13;41.72;101272.80;102632;1297;64833;-83
2023/09/16 02:43:08;;;;;;;4.90;4.20;;;;;;;27.13;41.81;101271.56;102723;1301;65742;-83
2023/09/16 02:45:43;;;;;;;5.40;4.10;;;;;;;27.13;41.73;101271.95;102690;1297;62539;-83
2023/09/16 02:48:09;;;;;;;5.20;4.10;;;;;;;27.12;41.51;101272.00;102605;1304;61504;-81
2023/09/16 02:50:39;;;;;;;5.30;4.30;;;;;;;27.12;41.58;101274.71;102774;1301;63781;-81
2023/09/16 02:53:04;;;;;;;;;;;;;;;27.13;41.67;101277.70;102702;1302;65897;-82
2023/09/16 02:55:33;;;;;;;5.10;4.40;;;;;;;27.09;41.58;101278.31;102682;1297;62519;-82
2023/09/16 02:57:59;;;;;;;5.40;4.50;;;;;;;27.10;41.57;101278.64;102632;1297;61423;-83
2023/09/16 03:00:25;;;;;;;5.10;4.00;;;;;;;27.10;41.63;101278.81;102684;1298;61388;-83
2023/09/16 03:02:50;;;;;;;6.30;4.50;;;;;;;27.10;41.74;101280.04;102590;1298;61407;-83
2023/09/16 03:05:16;;;;;;;5.00;4.10;;;;;;;27.10;41.65;101280.24;101889;1297;1417915;-83
2023/09/16 03:07:44;;;;;;;5.90;4.40;;;;;;;27.10;41.59;101281.89;102887;1297;61712;-83
2023/09/16 03:10:11;;;;;;;6.00;4.20;;;;;;;27.10;41.64;101288.42;102743;1297;61394;-83
2023/09/16 03:12:37;;;;;;;5.50;4.20;;;;;;;27.10;41.59;101289.65;102757;1303;61404;-82
2023/09/16 03:15:03;;;;;;;5.00;4.10;;;;;;;27.09;41.76;101291.56;102710;1297;61432;-82
2023/09/16 03:17:29;;;;;;;4.30;3.80;;;;;;;27.10;41.72;101291.30;102648;1301;61433;-82
2023/09/16 03:19:55;;;;;;;5.90;4.10;;;;;;;27.11;41.71;101293.76;102713;1295;61367;-83
2023/09/16 03:22:21;;;;;;;5.20;4.10;;;;;;;27.10;41.69;101291.08;102845;1297;61496;-82
2023/09/16 03:24:47;;;;;;;4.80;4.00;;;;;;;27.10;41.67;101289.10;102879;1295;61683;-83
2023/09/16 03:27:13;;;;;;;4.60;3.60;;;;;;;27.10;41.78;101293.98;102569;1300;61430;-82
2023/09/16 03:29:38;;;;;;;4.90;4.10;;;;;;;27.11;41.62;101296.84;102825;1297;61414;-82
2023/09/16 03:32:04;;;;;;;5.80;4.20;;;;;;;27.10;41.67;101303.03;102652;1300;61422;-83
2023/09/16 03:34:29;;;;;;;5.00;4.00;;;;;;;27.09;41.64;101309.04;102726;1298;61412;-82
2023/09/16 03:36:55;;;;;;;4.60;4.10;;;;;;;27.10;41.68;101310.98;102915;1298;61410;-82
2023/09/16 03:39:21;;;;;;;4.90;4.00;;;;;;;27.10;41.74;101313.88;102687;1297;61335;-83
2023/09/16 03:41:46;;;;;;;5.40;4.10;;;;;;;27.10;41.61;101318.36;102753;1297;61488;-83
2023/09/16 03:44:12;;;;;;;4.70;3.70;;;;;;;27.10;41.70;101319.30;102725;1301;62036;-83
2023/09/16 03:46:39;;;;;;;5.00;4.10;;;;;;;27.10;41.67;101317.52;102688;1301;61385;-83
2023/09/16 03:49:05;;;;;;;5.00;4.20;;;;;;;27.10;41.71;101319.48;102733;1297;61317;-83
2023/09/16 03:51:31;;;;;;;5.10;3.80;;;;;;;27.10;41.74;101321.98;102684;1296;61389;-82
2023/09/16 03:53:57;;;;;;;5.00;4.10;;;;;;;27.09;41.60;101323.48;102628;1302;61420;-82
2023/09/16 03:56:23;;;;;;;5.40;3.90;;;;;;;27.10;41.68;101327.44;102793;1296;61812;-82
2023/09/16 03:58:48;;;;;;;5.60;4.00;;;;;;;27.10;41.68;101325.80;102862;1297;61934;-83
2023/09/16 04:01:14;;;;;;;5.20;4.00;;;;;;;27.10;41.66;101327.98;102796;1298;61403;-82
2023/09/16 04:03:40;;;;;;;5.00;4.00;;;;;;;27.10;41.59;101324.56;102691;1301;61827;-83
2023/09/16 04:06:06;;;;;;;5.00;3.90;;;;;;;27.09;41.59;101326.02;102680;1298;61427;-82
2023/09/16 04:08:32;;;;;;;5.10;3.80;;;;;;;27.09;41.52;101324.94;102904;1299;61498;-82
2023/09/16 04:10:58;;;;;;;4.80;3.80;;;;;;;27.09;41.62;101326.59;102618;1295;61347;-82
2023/09/16 04:13:23;;;;;;;5.00;3.70;;;;;;;27.10;41.73;101328.31;102703;1296;61435;-83
2023/09/16 04:15:50;;;;;;;4.70;4.00;;;;;;;27.10;41.48;101334.27;102764;1296;61536;-83
2023/09/16 04:18:16;;;;;;;5.40;3.80;;;;;;;27.10;41.84;101339.16;102489;1296;62657;-83
2023/09/16 04:20:42;;;;;;;4.60;3.90;;;;;;;27.09;41.68;101341.52;102748;1300;61479;-83
2023/09/16 04:23:08;;;;;;;4.60;3.80;;;;;;;27.10;41.59;101344.78;102671;1302;61377;-83
2023/09/16 04:25:35;;;;;;;4.50;3.70;;;;;;;27.10;41.69;101345.67;102752;1297;61440;-83
2023/09/16 04:28:02;;;;;;;4.70;3.80;;;;;;;27.10;41.63;101347.13;102703;1303;62166;-83
2023/09/16 04:30:28;;;;;;;5.30;3.60;;;;;;;27.10;41.73;101348.02;102813;1298;61385;-83
2023/09/16 04:32:54;;;;;;;4.50;3.80;;;;;;;27.10;41.72;101349.27;102651;1300;61432;-83
2023/09/16 04:35:20;;;;;;;4.70;3.70;;;;;;;27.10;41.59;101351.63;102682;1298;61852;-83
2023/09/16 04:37:46;;;;;;;4.80;3.60;;;;;;;27.10;41.61;101356.30;102859;1298;62131;-83
2023/09/16 04:40:12;;;;;;;5.70;3.50;;;;;;;27.10;41.73;101360.27;102802;1301;61434;-83
2023/09/16 04:42:40;;;;;;;4.50;3.50;;;;;;;27.10;41.63;101359.88;102590;1298;61400;-83
2023/09/16 04:45:06;;;;;;;6.90;4.00;;;;;;;27.10;41.51;101359.70;102714;1298;61446;-83
2023/09/16 04:47:32;;;;;;;4.50;3.60;;;;;;;27.11;41.49;101361.85;102617;1303;61328;-83
2023/09/16 04:49:57;;;;;;;4.60;3.50;;;;;;;27.11;41.66;101363.08;102732;1300;61666;-82
2023/09/16 04:52:25;;;;;;;5.80;4.00;;;;;;;27.11;41.64;101358.37;102881;1297;62447;-82
2023/09/16 04:54:53;;;;;;;4.00;3.20;;;;;;;27.12;41.68;101360.17;102761;1295;61514;-82
2023/09/16 04:57:23;;;;;;;4.60;3.70;;;;;;;27.11;41.55;101359.11;102715;1298;61334;-82
2023/09/16 04:59:48;;;;;;;4.90;3.60;;;;;;;27.11;41.52;101359.83;102954;1298;63649;-82
2023/09/16 05:02:14;;;;;;;4.20;3.20;;;;;;;27.12;41.60;101362.17;102658;1297;62404;-82
2023/09/16 05:04:40;;;;;;;5.20;3.80;;;;;;;27.11;41.55;101360.37;102732;1297;61920;-82
2023/09/16 05:07:06;;;;;;;5.60;3.60;;;;;;;27.12;41.46;101363.59;102718;1298;62098;-82
2023/09/16 05:09:34;;;;;;;4.40;3.40;;;;;;;27.12;41.39;101365.56;102820;1303;61406;-81
2023/09/16 05:11:59;;;;;;;4.60;3.70;;;;;;;27.12;41.69;101368.60;102590;1297;61416;-82
2023/09/16 05:14:25;;;;;;;5.50;3.70;;;;;;;27.12;41.52;101367.05;102785;1297;61322;-82
2023/09/16 05:16:51;;;;;;;4.50;3.60;;;;;;;27.12;41.61;101368.48;102757;1297;61475;-82
2023/09/16 05:19:16;;;;;;;5.40;3.80;;;;;;;27.12;41.77;101369.36;102757;1298;61439;-82
2023/09/16 05:21:42;;;;;;;4.70;3.80;;;;;;;27.12;41.68;101371.49;102679;1296;61296;-82
2023/09/16 05:24:07;;;;;;;5.60;3.60;;;;;;;27.12;41.61;101370.77;102745;1301;62523;-82
2023/09/16 05:26:33;;;;;;;4.30;3.40;;;;;;;27.12;41.77;101369.15;102739;1295;61428;-82
2023/09/16 05:28:59;;;;;;;4.40;3.40;;;;;;;27.12;41.65;101369.15;102634;1298;61304;-82
2023/09/16 05:31:24;;;;;;;5.10;3.50;;;;;;;27.13;41.52;101372.92;102655;1300;61398;-83
2023/09/16 05:33:50;;;;;;;4.30;3.40;;;;;;;27.13;41.67;101373.59;102722;1297;61542;-83
2023/09/16 05:36:16;;;;;;;5.40;3.30;;;;;;;27.13;41.62;101375.77;102874;1300;62013;-83
2023/09/16 05:38:42;;;;;;;4.20;3.20;;;;;;;27.12;41.74;101375.80;102742;1295;61466;-83
2023/09/16 05:41:07;;;;;;;4.80;3.70;;;;;;;27.13;41.65;101381.91;102689;1298;61395;-83
2023/09/16 05:43:33;;;;;;;4.50;3.50;;;;;;;27.13;41.69;101385.14;102818;1297;61494;-83
2023/09/16 05:46:01;;;;;;;4.10;3.20;;;;;;;27.14;41.84;101389.10;102750;1300;61501;-83
2023/09/16 05:48:28;;;;;;;4.70;3.30;;;;;;;27.14;41.73;101390.87;102802;1297;62567;-83
2023/09/16 05:50:57;;;;;;;4.40;3.60;;;;;;;27.14;41.67;101391.98;102712;1297;61403;-83
2023/09/16 05:53:23;;;;;;;5.40;3.60;;;;;;;27.14;41.62;101386.73;102723;1295;63848;-83
2023/09/16 05:55:49;;;;;;;4.60;3.50;;;;;;;27.14;41.81;101391.58;102700;1303;61456;-83
2023/09/16 05:58:14;;;;;;;4.90;3.60;;;;;;;27.15;41.53;101392.41;102841;1298;61440;-83
2023/09/16 06:00:40;;;;;;;5.30;3.50;;;;;;;27.15;41.63;101393.79;102672;1297;61357;-83
2023/09/16 06:03:06;;;;;;;4.10;3.30;;;;;;;27.15;41.55;101396.35;102749;1297;61797;-83
2023/09/16 06:05:33;;;;;;;4.80;3.50;;;;;;;27.16;41.57;101395.21;102898;1298;61414;-83
2023/09/16 06:07:59;;;;;;;4.70;3.50;;;;;;;27.15;41.56;101397.44;102774;1297;65754;-82
2023/09/16 06:10:25;;;;;;;5.60;3.80;;;;;;;27.17;41.48;101400.89;102675;1296;61491;-83
2023/09/16 06:12:51;;;;;;;4.30;3.40;;;;;;;27.17;41.58;101401.21;102647;1300;61568;-83
2023/09/16 06:15:17;;;;;;;4.20;3.50;;;;;;;27.17;41.55;101406.48;102850;1298;61460;-83
2023/09/16 06:17:42;;;;;;;4.60;3.10;;;;;;;27.18;41.62;101403.52;102631;1303;61450;-83
2023/09/16 06:20:08;;;;;;;4.90;3.30;;;;;;;27.18;41.64;101405.82;102762;1302;61992;-83
2023/09/16 06:22:34;;;;;;;4.80;3.20;;;;;;;27.19;41.65;101406.84;102766;1300;61471;-82
2023/09/16 06:25:00;;;;;;;4.50;3.30;;;;;;;27.20;41.58;101409.87;102894;1297;61377;-83
2023/09/16 06:27:25;;;;;;;4.40;3.10;;;;;;;27.20;41.84;101405.54;102742;1296;61350;-83
2023/09/16 06:29:52;;;;;;;4.30;3.30;;;;;;;27.20;41.58;101402.23;102683;1297;61431;-83
2023/09/16 06:32:19;;;;;;;4.00;3.30;;;;;;;27.21;41.74;101403.45;102733;1297;61417;-83
2023/09/16 06:34:44;;;;;;;4.20;3.20;;;;;;;27.21;41.81;101403.58;102813;1297;61854;-83
2023/09/16 06:37:10;;;;;;;4.80;3.30;;;;;;;27.22;41.81;101406.77;102691;1298;61395;-83
2023/09/16 06:39:37;;;;;;;4.20;3.00;;;;;;;27.22;41.68;101413.45;102699;1298;61488;-83
2023/09/16 06:42:04;;;;;;;4.60;3.60;;;;;;;27.23;42.00;101415.91;102518;1297;64552;-83
2023/09/16 06:44:30;;;;;;;4.30;3.30;;;;;;;27.23;41.89;101421.48;102860;1297;61426;-83
2023/09/16 06:46:56;;;;;;;4.60;3.60;;;;;;;27.24;41.82;101420.90;102649;1298;61554;-83
2023/09/16 06:49:22;;;;;;;5.00;3.20;;;;;;;27.24;41.84;101425.90;102747;1303;61315;-83
2023/09/16 06:51:47;;;;;;;4.50;3.30;;;;;;;27.24;41.94;101427.11;102668;1301;61490;-83
2023/09/16 06:54:13;;;;;;;4.00;3.30;;;;;;;27.25;41.74;101429.79;102833;1298;61482;-83
2023/09/16 06:56:39;;;;;;;4.90;3.30;;;;;;;27.25;41.72;101431.58;102834;1298;61352;-83
2023/09/16 06:59:05;;;;;;;4.90;3.40;;;;;;;27.26;42.09;101433.19;102648;1296;61388;-83
2023/09/16 07:01:30;;;;;;;4.60;3.40;;;;;;;27.27;42.02;101437.75;102619;1301;61390;-83
2023/09/16 07:03:57;;;;;;;4.40;3.40;;;;;;;27.27;42.14;101438.32;102814;1302;61431;-83
2023/09/16 07:06:23;;;;;;;4.40;3.40;;;;;;;27.26;41.89;101444.52;102813;1296;61367;-83
2023/09/16 07:08:48;;;;;;;5.50;3.50;;;;;;;27.26;41.93;101448.84;102718;1298;61401;-83
2023/09/16 07:11:15;;;;;;;4.30;3.40;;;;;;;27.27;42.00;101457.30;102819;1296;61418;-83
2023/09/16 07:13:41;;;;;;;4.70;3.60;;;;;;;27.27;42.14;101458.55;102744;1296;61482;-83
2023/09/16 07:16:06;;;;;;;5.60;3.80;;;;;;;27.27;41.99;101461.06;102676;1296;61843;-83
2023/09/16 07:18:32;;;;;;;5.50;3.50;;;;;;;27.26;41.97;101463.30;102829;1297;61406;-83
2023/09/16 07:20:57;;;;;;;4.50;3.50;;;;;;;27.27;41.91;101464.35;102779;1297;61313;-83
2023/09/16 07:23:23;;;;;;;4.60;3.40;;;;;;;27.27;41.87;101467.08;102765;1300;61401;-83
2023/09/16 07:25:56;;;;;;;5.40;3.20;;;;;;;27.26;41.93;101468.52;102831;1296;62103;-82
2023/09/16 07:28:24;;;;;;;4.30;3.60;;;;;;;27.25;41.99;101468.98;102525;1300;61984;-82
2023/09/16 07:30:49;;;;;;;5.00;3.40;;;;;;;27.26;41.83;101472.20;102750;1301;61373;-83
2023/09/16 07:33:15;;;;;;;4.10;3.30;;;;;;;27.25;41.96;101477.30;102709;1298;61747;-83
2023/09/16 07:35:40;;;;;;;4.50;3.40;;;;;;;27.25;42.05;101476.94;102820;1300;61390;-83
2023/09/16 07:38:06;;;;;;;4.30;3.50;;;;;;;27.25;41.87;101476.80;102779;1301;61416;-82
2023/09/16 07:40:32;;;;;;;5.20;3.70;;;;;;;27.25;41.88;101477.34;102723;1298;61788;-83
2023/09/16 07:42:58;;;;;;;4.20;3.40;;;;;;;27.25;42.15;101476.42;102859;1299;62044;-83
2023/09/16 07:45:24;;;;;;;5.00;3.50;;;;;;;27.24;42.11;101471.98;102659;1296;63810;-82
2023/09/16 07:47:50;;;;;;;5.30;3.50;;;;;;;27.24;41.89;101476.73;102789;1301;61965;-82
2023/09/16 07:50:15;;;;;;;5.20;3.50;;;;;;;27.24;41.76;101475.96;102832;1299;61352;-82
2023/09/16 07:52:42;;;;;;;4.20;3.50;;;;;;;27.24;41.88;101479.35;102754;1297;61415;-82
2023/09/16 07:55:08;;;;;;;4.20;3.50;;;;;;;27.24;41.98;101481.56;102689;1302;61344;-82
2023/09/16 07:57:34;;;;;;;4.90;3.90;;;;;;;27.24;41.93;101482.30;102895;1298;62117;-83
2023/09/16 07:59:59;;;;;;;4.90;3.50;;;;;;;27.24;41.88;101482.27;102891;1302;61400;-82
2023/09/16 08:02:25;;;;;;;4.00;3.30;;;;;;;27.25;41.75;101480.96;102774;1297;62162;-82
2023/09/16 08:04:51;;;;;;;5.10;3.50;;;;;;;27.25;41.89;101489.06;102825;1300;61498;-82
2023/09/16 08:07:17;;;;;;;5.40;3.50;;;;;;;27.25;41.88;101490.52;102769;1300;61283;-83
2023/09/16 08:09:43;;;;;;;5.70;3.70;;;;;;;27.25;41.95;101485.30;102688;1302;61453;-83
2023/09/16 08:12:08;;;;;;;4.90;3.80;;;;;;;27.25;42.10;101491.44;102541;1296;61376;-83
2023/09/16 08:14:34;;;;;;;5.80;3.80;;;;;;;27.24;42.07;101494.36;102755;1296;62594;-83
2023/09/16 08:17:03;;;;;;;6.20;3.80;;;;;;;27.24;41.88;101492.77;102896;1295;61342;-83
2023/09/16 08:19:32;;;;;;;4.80;3.70;;;;;;;27.24;41.85;101497.11;102794;1301;63837;-83
2023/09/16 08:21:58;;;;;;;5.50;4.10;;;;;;;27.24;41.79;101496.56;102675;1301;65859;-83
2023/09/16 08:24:24;;;;;;;4.70;3.90;;;;;;;27.24;41.94;101498.02;102798;1300;61499;-83
2023/09/16 08:26:50;;;;;;;6.20;3.90;;;;;;;27.24;42.12;101498.36;102760;1301;61340;-83
2023/09/16 08:29:16;;;;;;;4.90;3.90;;;;;;;27.24;42.01;101494.92;102737;1301;61482;-83
2023/09/16 08:31:42;;;;;;;5.00;3.90;;;;;;;27.23;42.08;101494.96;102631;1302;61343;-83
2023/09/16 08:34:07;;;;;;;5.30;3.80;;;;;;;27.24;42.20;101494.73;102706;1300;61397;-83
2023/09/16 08:36:33;;;;;;;4.30;3.40;;;;;;;27.24;41.88;101490.55;102863;1301;61397;-83
2023/09/16 08:38:58;;;;;;;7.00;4.20;;;;;;;27.24;41.78;101488.41;102803;1300;61331;-83
2023/09/16 08:42:04;;;;;;;6.20;4.10;;;;;;;27.25;41.94;101488.19;102525;1297;61552;-83
2023/09/16 08:44:30;;;;;;;4.90;3.80;;;;;;;27.25;42.08;101493.42;102329;1300;65903;-83
2023/09/16 08:46:59;;;;;;;5.60;3.80;;;;;;;27.25;42.11;101489.10;102834;1302;61361;-83
2023/09/16 08:49:25;;;;;;;4.80;3.80;;;;;;;27.25;42.03;101492.11;102592;1302;62371;-83
2023/09/16 08:51:51;;;;;;;5.10;3.90;;;;;;;27.26;41.94;101490.28;102601;1303;61447;-83
2023/09/16 08:54:18;;;;;;;4.80;3.80;;;;;;;27.26;42.09;101491.02;102665;1299;65600;-82
2023/09/16 08:56:44;;;;;;;5.30;4.20;;;;;;;27.25;42.04;101491.41;102648;1302;61385;-82
2023/09/16 08:59:11;;;;;;;4.90;4.20;;;;;;;27.26;42.07;101492.43;102697;1300;61480;-82
2023/09/16 09:01:36;;;;;;;4.20;3.70;;;;;;;27.26;42.00;101496.21;102731;1301;63042;-82
2023/09/16 09:04:03;;;;;;;5.30;3.80;;;;;;;27.26;42.06;101494.41;102561;1302;61420;-82
2023/09/16 09:06:28;;;;;;;5.40;3.90;;;;;;;27.26;42.09;101497.86;102734;1296;61409;-82
2023/09/16 09:08:54;;;;;;;6.50;4.20;;;;;;;27.26;41.94;101496.61;102799;1296;61473;-82
2023/09/16 09:11:19;;;;;;;6.20;4.10;;;;;;;27.26;41.96;101498.91;102736;1301;61371;-82
2023/09/16 09:13:45;;;;;;;5.00;4.20;;;;;;;27.25;42.12;101498.96;102580;1304;62576;-82
2023/09/16 09:16:11;;;;;;;4.70;4.10;;;;;;;27.25;42.10;101501.85;102801;1301;61376;-82
2023/09/16 09:18:36;;;;;;;7.10;4.10;;;;;;;27.26;41.92;101500.95;102847;1300;62298;-82
2023/09/16 09:21:04;;;;;;;5.70;4.00;;;;;;;27.26;41.90;101500.23;102606;1301;61404;-82
2023/09/16 09:23:31;;;;;;;5.00;4.20;;;;;;;27.25;42.10;101502.21;102639;1300;64003;-82
2023/09/16 09:25:57;;;;;;;6.40;4.20;;;;;;;27.26;42.15;101503.27;102686;1301;61467;-83
2023/09/16 09:28:23;;;;;;;5.60;4.20;;;;;;;27.26;41.88;101504.52;102672;1300;61483;-83
2023/09/16 09:30:50;;;;;;;4.90;3.90;;;;;;;27.26;41.97;101503.82;102743;1301;61400;-83
2023/09/16 09:33:19;;;;;;;5.90;4.00;;;;;;;27.25;42.04;101506.23;102675;1295;61966;-83
2023/09/16 09:35:44;;;;;;;5.40;4.20;;;;;;;27.25;42.02;101506.73;102745;1300;65584;-83
2023/09/16 09:38:11;;;;;;;5.50;4.40;;;;;;;27.26;41.86;101508.90;102734;1298;63146;-83
2023/09/16 09:40:37;;;;;;;5.80;4.30;;;;;;;27.25;42.16;101506.21;102831;1300;61604;-83
2023/09/16 09:43:03;;;;;;;5.60;4.20;;;;;;;27.25;42.16;101501.52;102769;1300;61379;-83
2023/09/16 09:45:40;;;;;;;5.80;4.30;;;;;;;27.25;41.85;101503.87;102593;1301;61415;-83
2023/09/16 09:48:06;;;;;;;5.30;4.10;;;;;;;27.25;42.14;101501.70;102724;1300;61332;-83
2023/09/16 09:50:31;;;;;;;5.60;4.30;;;;;;;27.25;42.00;101499.55;102916;1295;61378;-83
2023/09/16 09:53:00;;;;;;;6.20;4.50;;;;;;;27.25;42.13;101500.63;102752;1300;61874;-83
2023/09/16 09:55:29;;;;;;;5.40;4.20;;;;;;;27.25;42.23;101498.85;102683;1300;64777;-83
2023/09/16 09:57:54;;;;;;;5.20;3.90;;;;;;;27.25;42.23;101500.27;102731;1300;61405;-83
2023/09/16 10:00:21;;;;;;;4.90;4.20;;;;;;;27.25;42.03;101502.45;102854;1299;61479;-82
2023/09/16 10:02:50;;;;;;;7.10;4.70;;;;;;;27.25;41.82;101497.57;103140;1298;61487;-82
2023/09/16 10:05:18;;;;;;;5.20;4.00;;;;;;;27.25;41.87;101496.83;102809;1305;65868;-83
2023/09/16 10:07:44;;;;;;;5.20;4.30;;;;;;;27.25;42.08;101498.80;102911;1298;61404;-83
2023/09/16 10:10:16;;;;;;;4.90;4.00;;;;;;;27.25;42.09;101496.45;102920;1300;62067;-83
2023/09/16 10:12:44;;;;;;;5.00;4.30;;;;;;;27.25;41.97;101494.86;102771;1301;63848;-83
2023/09/16 10:15:11;;;;;;;6.00;4.50;;;;;;;27.25;41.93;101494.52;103019;1294;65631;-83
2023/09/16 10:17:37;;;;;;;5.20;4.10;;;;;;;27.25;42.03;101497.20;103146;1300;61363;-83
2023/09/16 10:20:03;;;;;;;5.80;4.00;;;;;;;27.25;42.04;101497.92;103705;1300;61367;-83
2023/09/16 10:22:31;;;;;;;5.50;4.40;;;;;;;27.26;41.91;101496.77;103186;1299;61279;-83
2023/09/16 10:24:57;;;;;;;5.90;4.40;;;;;;;27.26;42.06;101496.77;103036;1299;65811;-82
2023/09/16 10:27:23;;;;;;;6.00;4.40;;;;;;;27.26;42.11;101496.02;102861;1298;61803;-82
2023/09/16 10:29:49;;;;;;;6.50;5.00;;;;;;;27.27;42.15;101498.29;102682;1296;62126;-82
2023/09/16 10:32:17;;;;;;;5.40;4.10;;;;;;;27.27;42.00;101493.23;102733;1296;61463;-82
2023/09/16 10:34:45;;;;;;;6.00;4.50;;;;;;;27.26;41.88;101495.64;102807;1298;66888;-82
2023/09/16 10:37:10;;;;;;;5.50;4.30;;;;;;;27.26;41.92;101493.30;102843;1297;61265;-83
2023/09/16 10:39:37;;;;;;;5.30;4.50;;;;;;;27.27;42.11;101492.36;102838;1296;61405;-82
2023/09/16 10:42:03;;;;;;;5.50;4.30;;;;;;;27.26;42.05;101492.39;102749;1296;61448;-82
2023/09/16 10:44:30;;;;;;;5.60;4.30;;;;;;;27.26;42.03;101490.75;102790;1301;61437;-82
2023/09/16 10:46:57;;;;;;;5.90;4.40;;;;;;;27.26;42.17;101489.36;102603;1303;61402;-82
2023/09/16 10:49:23;;;;;;;5.60;4.60;;;;;;;27.26;42.20;101491.33;102673;1302;61374;-83
2023/09/16 10:51:49;;;;;;;6.80;5.00;;;;;;;27.26;42.06;101488.10;102749;1302;61414;-81
2023/09/16 10:54:41;;;;;;;5.20;4.20;;;;;;;27.26;42.00;101488.25;102677;1296;61499;-82
2023/09/16 10:57:17;;;;;;;5.70;4.60;;;;;;;27.25;42.01;101486.20;102885;1295;61427;-82
2023/09/16 10:59:46;;;;;;;6.00;4.70;;;;;;;27.25;42.09;101485.98;102835;1298;61292;-82
2023/09/16 11:02:27;;;;;;;5.90;4.40;;;;;;;27.25;42.13;101483.79;102705;1296;63721;-82
2023/09/16 11:04:53;;;;;;;5.40;4.40;;;;;;;27.25;42.00;101484.34;102874;1296;65850;-82
2023/09/16 11:07:19;;;;;;;5.50;4.30;;;;;;;27.25;41.93;101479.45;102900;1300;62216;-82
2023/09/16 11:09:45;;;;;;;7.00;4.70;;;;;;;27.26;42.16;101475.09;102602;1306;61412;-82
2023/09/16 11:12:12;;;;;;;5.30;4.60;;;;;;;27.25;42.27;101473.86;102574;1300;61582;-82
2023/09/16 11:14:38;;;;;;;6.70;4.80;;;;;;;27.25;41.94;101471.13;102812;1302;61776;-83